Kelone — FAD2756 — position and weather

sailwx.info

Track history (hours):
 
Tides and Currents Weather Stations Pressure Air Temp Water Temp Dewpoint Dewpoint Depression Visibility Wind Speed Wind Dir Waves Ship Positions

Kelone

Last reported at 2018-May-13 09:54 UTC. Time now 2018-Jun-21 12:22 UTC.
Position N 46°12' W 001°22'.
Warning: this ship's position is 39 days out of date.

Length 13 m.

Type: Sailing vessel. MMSI: 227377280.

Date/timePositionNaut miles runAvg speedWind from/ knotsBaromVisibWave heightAir tempDewpointWater temp
2018-May-13 09:54N 46°12' W 001°22'18 0.7
2018-May-12 07:59N 46°25' W 001°41'2 4.1
2018-May-12 07:30N 46°26' W 001°43'  
2018-May-07 11:49N 46°09' W 001°10'0 0.9
2018-May-07 11:30N 46°09' W 001°10'3 5.3
2018-May-07 11:00N 46°08' W 001°14'2 3.5
2018-May-07 10:30N 46°08' W 001°16'2 4.7
2018-May-07 10:00N 46°08' W 001°20'30 0.8
2018-May-05 17:51N 46°26' W 001°55'2 5.5
2018-May-05 17:29N 46°26' W 001°52'2 4.2
2018-May-05 17:00N 46°27' W 001°49'2 3.9
2018-May-05 16:30N 46°26' W 001°47'2 4.7
2018-May-05 15:59N 46°24' W 001°44'23 3.4
2018-May-05 09:11N 46°08' W 001°21'1 6.9
2018-May-05 09:00N 46°07' W 001°20'4 7.4
2018-May-05 08:30N 46°08' W 001°14'3 5.2
2018-May-05 08:00N 46°09' W 001°11'1 1.3
2018-May-05 07:28N 46°09' W 001°10'  
Track history (hours):
 
Tides and Currents Weather Stations Pressure Air Temp Water Temp Dewpoint Dewpoint Depression Visibility Wind Speed Wind Dir Waves Ship Positions

Kelone

Last reported at 2018-May-13 09:54 UTC. Time now 2018-Jun-21 12:22 UTC.
Position N 46°12' W 001°22'.
Warning: this ship's position is 39 days out of date.

Length 13 m.

Type: Sailing vessel. MMSI: 227377280.

Date/timePositionNaut miles runAvg speedWind from/ knotsBaromVisibWave heightAir tempDewpointWater temp
2018-May-13 09:54N 46°12' W 001°22'18 0.7
2018-May-12 07:59N 46°25' W 001°41'2 4.1
2018-May-12 07:30N 46°26' W 001°43'  
2018-May-07 11:49N 46°09' W 001°10'0 0.9
2018-May-07 11:30N 46°09' W 001°10'3 5.3
2018-May-07 11:00N 46°08' W 001°14'2 3.5
2018-May-07 10:30N 46°08' W 001°16'2 4.7
2018-May-07 10:00N 46°08' W 001°20'30 0.8
2018-May-05 17:51N 46°26' W 001°55'2 5.5
2018-May-05 17:29N 46°26' W 001°52'2 4.2
2018-May-05 17:00N 46°27' W 001°49'2 3.9
2018-May-05 16:30N 46°26' W 001°47'2 4.7
2018-May-05 15:59N 46°24' W 001°44'23 3.4
2018-May-05 09:11N 46°08' W 001°21'1 6.9
2018-May-05 09:00N 46°07' W 001°20'4 7.4
2018-May-05 08:30N 46°08' W 001°14'3 5.2
2018-May-05 08:00N 46°09' W 001°11'1 1.3
2018-May-05 07:28N 46°09' W 001°10'  

Dump ship's entire track history